Norfolk, NE (68701)

09:53 CDT le 30 juillet 2016 (GMT -0500)
North Norfolk | | Change Station

Alt. 1614 ft 42.05 °N, 97.44 °W | Updated 7 seconds ago

Scattered Clouds
Nuages épars
67.6 ° F
Paraît 67.6 ° F
N
7.2
Vent Variable Vent de SE
Gusts 7.4 mph

Aujourd'hui
Haut(e) -- | Bas -- ° F
--% Risque de précip.
Hier
Haut(e) -- | Bas -- ° F
Precip. -- pouce
Pression 30.04 pouce
Visibilité 10.0 Miles terrestres
Nuages Nuages épars 5000 ft
Nuages épars 10000 ft
Point de rosée 64 ° F
Humidité 89%
Précipitations 0.00 pouce
Profondeur de la couche neigeuse Non disponible.
6:21 AM 8:50 PM
Lune descendante, 13% visible
METAR KOFK 301356Z AUTO 00000KT 10SM SCT050 SCT100 18/16 A3006 RMK AO2 SLP171 T01780161
Pression 30.04 pouce
Visibilité 10.0 Miles terrestres
Nuages Nuages épars 5000 ft
Nuages épars 10000 ft
Point de rosée 64 ° F
Humidité 89%
Précipitations 0.00 pouce
Profondeur de la couche neigeuse Non disponible.
6:21 AM 8:50 PM
Lune descendante, 13% visible
METAR KOFK 301356Z AUTO 00000KT 10SM SCT050 SCT100 18/16 A3006 RMK AO2 SLP171 T01780161

10-Day Weather Forecast

Almanac

Astronomie

Jul. 30, 2016 Lever Coucher
Temps réel
Crépuscule civil
Crépuscule nautique
Crépuscule astronomique
Lune
Durée de lumière visible
Longueur du jour
Tomorrow will be .
, % of the Moon is Illuminated

Extrêmes aujourd'hui

State Highs State Lows

Community

WunderPhotos

Upload Photos

1,928,565 Photos téléchargées !

WunderBlog® & News

Nearby

Qualité de l'air

  Qualité de l'air Indice de la qualité de l'air Polluant
Not available.

Épaisseur de neige

Station Depth Altitude

Activité sismique

Ville Distance Mag. Time & Date
Minimum magnitude displayed is 2.5.

Températures des eaux côtières

Lieu Température

Stations

Stations météo à proximité

Emplacement de la station Température Refroidissement éolien Point de rosée Humidité Vent Precip. Alt. Mise à jour Type
                   

Watches & Warnings

There are currently no watches in effect.